Time;durP1;ratioP1;P1;durP2;ratioP2;P2;SDS_P1;SDS_P2;PMS_P1;PMS_P2;Temp;Humidity;BMP_temperature;BMP_pressure;BME280_temperature;BME280_humidity;BME280_pressure;Samples;Min_cycle;Max_cycle;Signal;HPM_P1;HPM_P2
2023/08/08 00:00:55;;;;;;;1.37;1.27;;;21.70;92.30;;;;;;5041342;28;20473;-67
2023/08/08 00:03:22;;;;;;;1.13;0.97;;;21.70;92.60;;;;;;5044107;28;20444;-67
2023/08/08 00:05:49;;;;;;;1.13;1.03;;;21.60;92.70;;;;;;5043622;28;20484;-67
2023/08/08 00:08:17;;;;;;;1.63;1.53;;;21.60;92.80;;;;;;5040570;28;20476;-67
2023/08/08 00:10:44;;;;;;;1.40;1.30;;;21.60;92.90;;;;;;5040267;28;20499;-67
2023/08/08 00:13:11;;;;;;;1.50;1.40;;;21.60;93.00;;;;;;5043577;28;20498;-67
2023/08/08 00:15:37;;;;;;;4.20;1.13;;;21.60;93.30;;;;;;5043877;28;20445;-67
2023/08/08 00:18:05;;;;;;;1.20;1.10;;;21.60;93.30;;;;;;5041396;28;20483;-67
2023/08/08 00:20:32;;;;;;;1.10;1.10;;;21.60;93.20;;;;;;5039993;28;20499;-67
2023/08/08 00:22:59;;;;;;;1.50;1.33;;;21.60;93.10;;;;;;5041782;28;20472;-67
2023/08/08 00:25:27;;;;;;;0.90;0.90;;;21.60;93.20;;;;;;5043497;28;20472;-67
2023/08/08 00:27:54;;;;;;;1.47;1.10;;;21.50;93.50;;;;;;5042573;28;20474;-67
2023/08/08 00:30:21;;;;;;;1.10;1.00;;;21.50;93.80;;;;;;5039793;28;21011;-67
2023/08/08 00:32:48;;;;;;;2.63;1.27;;;21.50;93.60;;;;;;5039988;28;20481;-67
2023/08/08 00:35:15;;;;;;;2.93;0.90;;;21.50;93.50;;;;;;5043467;28;20491;-67
2023/08/08 00:37:42;;;;;;;1.00;1.00;;;21.50;93.80;;;;;;5043458;28;20482;-67
2023/08/08 00:40:10;;;;;;;1.60;1.40;;;21.50;93.60;;;;;;5039127;28;20473;-67
2023/08/08 00:42:38;;;;;;;1.00;1.00;;;21.50;93.70;;;;;;5039111;28;20523;-67
2023/08/08 00:45:05;;;;;;;1.67;1.20;;;21.50;94.00;;;;;;5041975;28;20979;-67
2023/08/08 00:47:33;;;;;;;1.50;1.40;;;21.50;93.80;;;;;;5043291;28;21070;-67
2023/08/08 00:50:01;;;;;;;1.00;1.00;;;21.50;94.10;;;;;;5041318;28;20851;-67
2023/08/08 00:52:29;;;;;;;1.13;1.10;;;21.50;93.80;;;;;;5039434;28;20544;-67
2023/08/08 00:54:56;;;;;;;0.97;0.97;;;21.40;94.10;;;;;;5039611;28;20484;-67
2023/08/08 00:57:23;;;;;;;1.17;1.10;;;21.40;94.00;;;;;;5039870;28;20481;-67
2023/08/08 00:59:52;;;;;;;1.30;1.20;;;21.40;94.20;;;;;;5039693;28;20480;-67
2023/08/08 01:02:19;;;;;;;0.90;0.90;;;21.40;94.00;;;;;;5042729;28;20911;-67
2023/08/08 01:04:46;;;;;;;1.20;1.20;;;21.40;94.40;;;;;;5041819;28;20484;-67
2023/08/08 01:07:22;;;;;;;2.80;1.40;;;21.40;94.30;;;;;;5039450;28;20465;-67
2023/08/08 01:09:56;;;;;;;1.30;1.30;;;21.40;94.60;;;;;;5039449;28;20473;-67
2023/08/08 01:12:26;;;;;;;1.00;1.00;;;21.40;94.20;;;;;;5042797;28;20584;-67
2023/08/08 01:14:55;;;;;;;2.07;1.27;;;21.40;94.20;;;;;;5042021;28;20471;-67
2023/08/08 01:17:25;;;;;;;1.20;1.20;;;21.40;94.30;;;;;;5039610;28;20484;-67
2023/08/08 01:19:52;;;;;;;0.90;0.90;;;21.40;94.40;;;;;;5039738;28;20473;-67
2023/08/08 01:22:25;;;;;;;0.90;0.90;;;21.30;94.60;;;;;;5042571;28;20507;-67
2023/08/08 01:24:55;;;;;;;1.13;1.13;;;21.30;94.60;;;;;;5042336;28;20846;-67
2023/08/08 01:27:22;;;;;;;1.10;1.10;;;21.30;94.40;;;;;;5039515;28;20499;-67
2023/08/08 01:29:49;;;;;;;0.93;0.93;;;21.30;94.40;;;;;;5039188;28;20529;-67
2023/08/08 01:32:16;;;;;;;1.43;1.33;;;21.30;94.30;;;;;;5031259;28;20492;-67
2023/08/08 01:34:43;;;;;;;1.27;1.17;;;21.30;94.30;;;;;;5038498;28;20449;-67
2023/08/08 01:37:15;;;;;;;1.40;1.30;;;21.30;94.30;;;;;;5042122;28;20472;-67
2023/08/08 01:39:44;;;;;;;1.10;1.10;;;21.30;94.60;;;;;;5042632;28;20465;-67
2023/08/08 01:42:15;;;;;;;0.80;0.80;;;21.30;94.60;;;;;;5039500;28;20504;-67
2023/08/08 01:44:42;;;;;;;1.20;1.20;;;21.30;94.70;;;;;;5032737;28;20502;-67
2023/08/08 01:47:09;;;;;;;1.60;1.20;;;21.30;94.70;;;;;;5040058;28;20468;-67
2023/08/08 01:49:36;;;;;;;1.00;1.00;;;21.30;95.00;;;;;;5039076;28;20504;-67
2023/08/08 01:52:04;;;;;;;1.10;1.10;;;21.30;94.70;;;;;;5042259;28;20618;-67
2023/08/08 01:54:30;;;;;;;1.20;1.10;;;21.30;95.00;;;;;;5045435;28;20456;-67
2023/08/08 01:56:57;;;;;;;0.90;0.90;;;21.30;94.80;;;;;;5045061;28;20472;-67
2023/08/08 01:59:26;;;;;;;1.20;1.20;;;21.30;94.70;;;;;;5042971;28;20469;-67
2023/08/08 02:01:52;;;;;;;1.03;1.00;;;21.30;95.10;;;;;;5042722;28;20493;-67
2023/08/08 02:04:20;;;;;;;1.00;1.00;;;21.20;94.80;;;;;;5045400;28;20866;-67
2023/08/08 02:06:47;;;;;;;1.00;1.00;;;21.30;94.80;;;;;;5046029;28;20483;-67
2023/08/08 02:09:15;;;;;;;1.13;1.03;;;21.20;95.00;;;;;;5042867;28;20449;-67
2023/08/08 02:11:42;;;;;;;1.63;1.00;;;21.20;95.00;;;;;;5042704;28;20500;-67
2023/08/08 02:14:09;;;;;;;1.43;0.80;;;21.20;95.10;;;;;;5045071;28;20524;-67
2023/08/08 02:16:39;;;;;;;0.90;0.90;;;21.20;95.10;;;;;;5042295;28;20885;-67
2023/08/08 02:19:06;;;;;;;1.50;1.40;;;21.20;95.10;;;;;;5044487;28;20528;-67
2023/08/08 02:21:33;;;;;;;1.30;1.20;;;21.20;95.10;;;;;;5045860;28;20464;-67
2023/08/08 02:24:00;;;;;;;0.93;0.93;;;21.20;95.00;;;;;;5044676;28;20472;-67
2023/08/08 02:26:27;;;;;;;0.90;0.90;;;21.20;95.20;;;;;;5041326;28;20480;-67
2023/08/08 02:28:53;;;;;;;1.30;1.30;;;21.20;95.10;;;;;;5042467;28;20884;-67
2023/08/08 02:31:21;;;;;;;1.20;1.20;;;21.20;95.00;;;;;;5045404;28;20518;-67
2023/08/08 02:33:50;;;;;;;0.97;0.97;;;21.20;95.20;;;;;;5045707;28;20450;-67
2023/08/08 02:36:18;;;;;;;1.20;1.10;;;21.20;95.20;;;;;;5029814;28;20466;-67
2023/08/08 02:38:45;;;;;;;1.17;1.17;;;21.10;95.20;;;;;;5045586;28;20476;-67
2023/08/08 02:41:12;;;;;;;1.10;1.10;;;21.10;95.10;;;;;;5042632;28;20489;-67
2023/08/08 02:43:38;;;;;;;1.00;1.00;;;21.10;95.40;;;;;;5042203;28;20480;-67
2023/08/08 02:46:05;;;;;;;1.10;1.10;;;21.10;95.30;;;;;;5042849;28;20485;-67
2023/08/08 02:48:32;;;;;;;1.10;1.10;;;21.10;95.50;;;;;;5045396;28;20483;-67
2023/08/08 02:51:00;;;;;;;1.17;1.17;;;21.10;95.50;;;;;;5044171;28;20511;-66
2023/08/08 02:53:27;;;;;;;1.00;1.00;;;21.10;95.60;;;;;;5042176;28;20476;-67
2023/08/08 02:55:54;;;;;;;0.83;0.83;;;21.10;95.40;;;;;;5041094;28;20481;-67
2023/08/08 02:58:21;;;;;;;1.33;1.30;;;21.10;95.50;;;;;;5041575;28;21025;-67
2023/08/08 03:00:48;;;;;;;1.23;1.23;;;21.10;95.60;;;;;;5041674;28;20493;-67
2023/08/08 03:03:15;;;;;;;1.13;1.13;;;21.10;95.70;;;;;;5043597;28;20441;-67
2023/08/08 03:05:42;;;;;;;1.70;1.00;;;21.10;95.50;;;;;;5045229;28;20436;-67
2023/08/08 03:08:10;;;;;;;1.30;1.10;;;21.10;95.50;;;;;;5041824;28;20452;-67
2023/08/08 03:10:37;;;;;;;1.20;1.20;;;21.10;95.50;;;;;;5041349;28;20515;-67
2023/08/08 03:13:04;;;;;;;1.37;1.33;;;21.10;95.70;;;;;;5043055;28;20964;-67
2023/08/08 03:15:31;;;;;;;1.30;1.30;;;21.10;95.70;;;;;;5045016;28;20859;-67
2023/08/08 03:17:58;;;;;;;1.07;1.07;;;21.10;95.70;;;;;;5043973;28;20827;-67
2023/08/08 03:20:25;;;;;;;0.90;0.90;;;21.10;95.50;;;;;;5041372;28;20492;-67
2023/08/08 03:22:52;;;;;;;1.43;1.27;;;21.10;95.90;;;;;;5041368;28;20476;-67
2023/08/08 03:25:20;;;;;;;1.20;1.20;;;21.00;95.90;;;;;;5041341;28;20970;-67
2023/08/08 03:27:47;;;;;;;1.50;1.20;;;21.00;95.80;;;;;;5041460;28;20480;-67
2023/08/08 03:30:15;;;;;;;1.13;1.13;;;21.00;96.00;;;;;;5043604;28;20487;-67
2023/08/08 03:32:42;;;;;;;1.73;1.43;;;21.00;95.80;;;;;;5044576;28;20444;-67
2023/08/08 03:35:10;;;;;;;1.00;1.00;;;21.00;96.00;;;;;;5042642;28;20953;-67
2023/08/08 03:37:37;;;;;;;1.03;1.03;;;21.00;95.90;;;;;;5041133;28;20744;-67
2023/08/08 03:40:04;;;;;;;1.37;1.33;;;21.00;96.00;;;;;;5042100;28;21269;-67
2023/08/08 03:42:33;;;;;;;1.03;1.03;;;21.00;96.00;;;;;;5044575;28;20445;-67
2023/08/08 03:45:00;;;;;;;1.00;1.00;;;21.00;96.00;;;;;;5043812;28;20875;-67
2023/08/08 03:47:27;;;;;;;1.67;1.57;;;21.00;95.90;;;;;;5040999;28;20473;-67
2023/08/08 03:49:57;;;;;;;1.10;1.10;;;21.00;95.80;;;;;;5040890;28;20904;-66
2023/08/08 03:52:24;;;;;;;1.17;1.10;;;21.00;96.00;;;;;;5033261;28;20555;-67
2023/08/08 03:54:52;;;;;;;0.80;0.80;;;21.00;96.10;;;;;;5041035;28;20480;-67
2023/08/08 03:57:19;;;;;;;1.90;1.10;;;21.00;96.50;;;;;;5043927;28;20504;-67
2023/08/08 03:59:47;;;;;;;0.97;0.97;;;20.90;96.20;;;;;;5044595;28;20930;-67
2023/08/08 04:02:14;;;;;;;1.53;1.53;;;21.00;96.10;;;;;;5041138;28;20495;-67
2023/08/08 04:04:41;;;;;;;1.23;1.23;;;21.00;96.20;;;;;;5040938;28;20467;-67
2023/08/08 04:07:08;;;;;;;1.17;1.10;;;20.90;96.20;;;;;;5042207;28;20480;-67
2023/08/08 04:09:35;;;;;;;1.90;1.37;;;21.00;96.20;;;;;;5043948;28;20499;-67
2023/08/08 04:12:01;;;;;;;1.20;1.10;;;20.90;96.20;;;;;;5042704;28;20889;-67
2023/08/08 04:14:28;;;;;;;1.40;1.40;;;20.90;96.20;;;;;;5040257;28;20477;-67
2023/08/08 04:16:57;;;;;;;1.17;1.00;;;20.90;96.10;;;;;;5040554;28;20477;-67
2023/08/08 04:19:24;;;;;;;1.23;1.23;;;20.90;96.10;;;;;;5040473;28;20473;-67
2023/08/08 04:21:51;;;;;;;1.40;1.30;;;20.90;96.30;;;;;;5039958;28;20585;-66
2023/08/08 04:24:17;;;;;;;1.50;1.50;;;20.90;96.40;;;;;;5043090;28;20548;-66
2023/08/08 04:26:44;;;;;;;3.07;1.47;;;20.90;96.60;;;;;;5043777;28;20480;-66
2023/08/08 04:29:11;;;;;;;1.40;1.40;;;20.90;96.30;;;;;;5041384;28;20502;-66
2023/08/08 04:31:38;;;;;;;3.80;2.10;;;20.90;95.90;;;;;;5039772;28;20509;-66
2023/08/08 04:34:06;;;;;;;3.90;2.27;;;21.00;96.40;;;;;;5041184;28;20476;-66
2023/08/08 04:36:33;;;;;;;6.90;3.47;;;21.00;96.60;;;;;;5043731;28;20470;-66
2023/08/08 04:39:00;;;;;;;5.53;3.20;;;21.00;97.30;;;;;;5042898;28;20891;-65
2023/08/08 04:41:27;;;;;;;9.63;3.30;;;21.00;97.50;;;;;;5039800;28;20972;-65
2023/08/08 04:43:54;;;;;;;7.87;2.70;;;21.00;99.20;;;;;;5040173;28;20884;-60
2023/08/08 04:46:21;;;;;;;6.60;3.00;;;21.00;99.90;;;;;;5043041;28;20448;-66
2023/08/08 04:48:48;;;;;;;11.53;3.17;;;21.00;99.90;;;;;;5043309;28;20476;-66
2023/08/08 04:51:16;;;;;;;8.07;3.20;;;21.00;99.90;;;;;;5040354;28;20667;-66
2023/08/08 04:53:43;;;;;;;4.20;3.60;;;21.10;99.90;;;;;;5039996;28;20480;-66
2023/08/08 04:56:10;;;;;;;4.60;3.53;;;21.00;99.90;;;;;;5041505;28;20488;-66
2023/08/08 04:58:36;;;;;;;5.73;2.90;;;21.10;99.90;;;;;;5043116;28;20586;-66
2023/08/08 05:01:03;;;;;;;3.87;3.13;;;21.10;99.90;;;;;;5056672;22;20513;-60
2023/08/08 05:03:30;;;;;;;5.27;3.20;;;21.00;99.90;;;;;;5031465;28;20499;-60
2023/08/08 05:05:58;;;;;;;4.10;2.40;;;21.10;99.90;;;;;;5031451;28;20477;-61
2023/08/08 05:08:27;;;;;;;4.00;2.40;;;21.10;99.90;;;;;;5015774;28;20515;-61
2023/08/08 05:10:54;;;;;;;3.77;1.90;;;21.10;99.90;;;;;;5026601;28;20481;-60
2023/08/08 05:13:20;;;;;;;4.70;2.33;;;21.10;99.90;;;;;;5011493;28;20480;-60
2023/08/08 05:15:47;;;;;;;5.20;2.00;;;21.10;99.90;;;;;;5011486;28;20469;-61
2023/08/08 05:18:14;;;;;;;4.13;1.77;;;21.10;99.90;;;;;;5011417;28;20469;-61
2023/08/08 05:20:41;;;;;;;5.80;1.73;;;21.10;99.90;;;;;;5011056;28;20492;-61
2023/08/08 05:23:08;;;;;;;3.33;2.40;;;21.10;99.90;;;;;;5011540;28;20469;-60
2023/08/08 05:25:36;;;;;;;1.80;1.70;;;21.00;99.90;;;;;;5011485;28;20949;-60
2023/08/08 05:28:03;;;;;;;2.53;2.20;;;21.10;99.90;;;;;;5014779;28;20479;-61
2023/08/08 05:30:30;;;;;;;1.80;1.70;;;21.10;99.90;;;;;;5015269;28;20483;-61
2023/08/08 05:32:57;;;;;;;2.70;2.40;;;21.10;99.90;;;;;;5015486;28;21015;-61
2023/08/08 05:35:24;;;;;;;4.10;2.30;;;21.10;99.90;;;;;;4999341;28;20466;-60
2023/08/08 05:37:51;;;;;;;2.90;2.10;;;21.10;99.90;;;;;;5015383;28;20473;-61
2023/08/08 05:40:18;;;;;;;2.17;1.70;;;21.10;99.90;;;;;;5015096;28;20485;-60
2023/08/08 05:42:46;;;;;;;9.20;1.87;;;21.10;99.90;;;;;;5015234;28;20496;-61
2023/08/08 05:45:13;;;;;;;3.13;1.40;;;21.00;99.90;;;;;;5015143;28;20473;-60
2023/08/08 05:47:40;;;;;;;2.93;2.10;;;21.10;99.90;;;;;;5015119;28;20448;-61
2023/08/08 05:50:08;;;;;;;1.90;1.80;;;21.10;99.90;;;;;;5014723;28;20438;-60
2023/08/08 05:52:34;;;;;;;2.30;2.00;;;21.10;99.90;;;;;;5015233;28;20926;-60
2023/08/08 05:55:01;;;;;;;2.73;1.70;;;21.00;99.90;;;;;;5015045;28;20854;-59
2023/08/08 05:57:28;;;;;;;1.90;1.80;;;21.10;99.80;;;;;;5015174;28;20453;-59
2023/08/08 05:59:57;;;;;;;2.93;1.50;;;21.00;99.90;;;;;;5014936;28;20478;-61
2023/08/08 06:02:23;;;;;;;2.93;1.80;;;21.10;99.90;;;;;;5014476;28;20813;-59
2023/08/08 06:04:50;;;;;;;1.83;1.67;;;21.00;99.70;;;;;;5014983;28;20465;-61
2023/08/08 06:07:17;;;;;;;1.97;1.87;;;21.00;99.70;;;;;;5014772;28;20450;-57
2023/08/08 06:09:44;;;;;;;4.10;2.00;;;21.00;99.60;;;;;;5014755;28;20446;-59
2023/08/08 06:12:11;;;;;;;1.70;1.60;;;21.00;99.70;;;;;;5014333;28;20513;-60
2023/08/08 06:14:38;;;;;;;3.33;1.43;;;21.00;99.50;;;;;;5014740;28;20882;-62
2023/08/08 06:17:06;;;;;;;4.03;2.10;;;21.00;99.60;;;;;;5014497;28;20488;-59
2023/08/08 06:19:33;;;;;;;1.90;1.80;;;21.00;99.50;;;;;;5014597;28;20477;-58
2023/08/08 06:22:00;;;;;;;2.20;1.37;;;21.00;99.50;;;;;;5014332;28;20972;-61
2023/08/08 06:24:27;;;;;;;5.20;1.90;;;21.00;99.40;;;;;;5014474;28;20954;-60
2023/08/08 06:26:54;;;;;;;4.20;2.53;;;21.00;99.30;;;;;;5014590;28;20485;-60
2023/08/08 06:29:21;;;;;;;3.03;1.90;;;21.00;99.30;;;;;;5014281;28;20512;-61
2023/08/08 06:31:48;;;;;;;1.60;1.50;;;21.00;99.10;;;;;;5013975;28;20572;-61
2023/08/08 06:34:16;;;;;;;1.50;1.40;;;21.00;99.10;;;;;;5014202;28;20889;-61
2023/08/08 06:36:43;;;;;;;3.93;2.10;;;21.00;99.10;;;;;;5014256;28;20482;-59
2023/08/08 06:39:11;;;;;;;1.83;1.63;;;21.00;99.20;;;;;;5014010;28;20484;-61
2023/08/08 06:41:38;;;;;;;1.70;1.60;;;21.00;99.10;;;;;;5013944;28;20465;-62
2023/08/08 06:44:05;;;;;;;2.73;1.80;;;21.00;99.20;;;;;;5014053;28;20446;-61
2023/08/08 06:46:32;;;;;;;1.80;1.67;;;21.00;99.10;;;;;;5014043;28;20445;-61
2023/08/08 06:48:59;;;;;;;5.40;1.93;;;21.00;99.10;;;;;;5014302;28;20476;-61
2023/08/08 06:51:27;;;;;;;2.37;2.17;;;21.00;98.90;;;;;;5013687;28;20849;-61
2023/08/08 06:53:54;;;;;;;4.40;1.73;;;21.00;99.00;;;;;;5013964;28;20476;-61
2023/08/08 06:56:21;;;;;;;1.73;1.63;;;21.00;99.00;;;;;;5013897;28;20897;-61
2023/08/08 06:58:48;;;;;;;1.43;1.33;;;21.00;98.80;;;;;;5013963;28;20965;-60
2023/08/08 07:01:15;;;;;;;2.23;1.73;;;21.00;99.00;;;;;;5013344;28;20512;-61
2023/08/08 07:03:43;;;;;;;1.97;1.70;;;21.00;98.90;;;;;;5013795;28;20442;-61
2023/08/08 07:06:10;;;;;;;1.53;1.43;;;21.00;99.00;;;;;;5013650;28;20456;-60
2023/08/08 07:08:39;;;;;;;2.23;1.60;;;21.00;98.90;;;;;;5013798;28;20478;-60
2023/08/08 07:11:06;;;;;;;2.97;1.77;;;21.00;98.90;;;;;;5013198;28;20520;-62
2023/08/08 07:13:33;;;;;;;1.40;1.30;;;21.00;98.80;;;;;;5013675;28;20445;-60
2023/08/08 07:16:00;;;;;;;2.10;1.53;;;21.00;98.70;;;;;;5013620;28;20470;-60
2023/08/08 07:18:27;;;;;;;1.90;1.80;;;21.00;98.70;;;;;;5013486;28;20521;-61
2023/08/08 07:20:56;;;;;;;1.50;1.40;;;21.00;98.80;;;;;;5013583;28;20485;-61
2023/08/08 07:23:23;;;;;;;1.70;1.60;;;21.00;98.90;;;;;;5013264;28;20453;-61
2023/08/08 07:25:51;;;;;;;1.90;1.80;;;21.00;98.80;;;;;;5013332;28;20470;-61
2023/08/08 07:28:18;;;;;;;1.73;1.63;;;21.00;98.70;;;;;;5013237;28;20895;-60
2023/08/08 07:30:45;;;;;;;2.20;1.90;;;21.00;98.70;;;;;;5012824;28;20466;-59
2023/08/08 07:33:13;;;;;;;1.70;1.60;;;21.00;98.80;;;;;;5013339;28;20465;-61
2023/08/08 07:35:40;;;;;;;2.00;1.80;;;21.00;98.60;;;;;;5013135;28;20525;-59
2023/08/08 07:38:07;;;;;;;1.50;1.40;;;21.00;98.70;;;;;;5013188;28;20948;-58
2023/08/08 07:40:34;;;;;;;1.97;1.87;;;21.00;98.60;;;;;;5012777;28;21092;-61
2023/08/08 07:43:02;;;;;;;1.67;1.57;;;21.00;98.70;;;;;;5013113;28;20934;-60
2023/08/08 07:45:29;;;;;;;2.33;2.13;;;21.00;98.70;;;;;;4997103;28;20522;-60
2023/08/08 07:47:56;;;;;;;1.87;1.77;;;21.00;98.70;;;;;;5012985;28;20446;-61
2023/08/08 07:50:23;;;;;;;2.43;1.77;;;21.00;98.60;;;;;;5011949;28;20500;-60
2023/08/08 07:52:50;;;;;;;1.20;1.20;;;21.00;98.70;;;;;;5012898;28;20548;-60
2023/08/08 07:55:17;;;;;;;1.67;1.60;;;21.00;98.60;;;;;;5012808;28;20474;-62
2023/08/08 07:57:44;;;;;;;2.70;1.50;;;21.00;98.80;;;;;;5012849;28;20478;-61
2023/08/08 08:00:13;;;;;;;1.97;1.80;;;21.00;98.60;;;;;;5012416;28;20465;-60
2023/08/08 08:02:42;;;;;;;2.40;2.07;;;21.00;98.90;;;;;;5012675;28;20811;-62
2023/08/08 08:05:09;;;;;;;4.10;2.40;;;21.00;98.60;;;;;;5012744;28;20511;-61
2023/08/08 08:07:37;;;;;;;1.97;1.87;;;21.00;98.60;;;;;;5012606;28;20837;-59
2023/08/08 08:10:05;;;;;;;1.80;1.70;;;21.00;98.50;;;;;;5012530;28;20525;-62
2023/08/08 08:12:33;;;;;;;1.97;1.87;;;21.00;98.50;;;;;;4996931;28;20517;-61
2023/08/08 08:15:00;;;;;;;2.17;1.90;;;21.00;98.60;;;;;;5012552;28;20493;-60
2023/08/08 08:17:28;;;;;;;3.13;1.60;;;21.00;98.70;;;;;;5012219;28;20898;-60
2023/08/08 08:19:55;;;;;;;1.70;1.60;;;21.00;98.50;;;;;;5012391;28;20872;-60
2023/08/08 08:22:22;;;;;;;2.67;2.27;;;21.00;98.70;;;;;;5012083;28;20763;-60
2023/08/08 08:24:50;;;;;;;3.60;2.00;;;21.00;98.60;;;;;;5012342;28;20442;-60
2023/08/08 08:27:16;;;;;;;1.73;1.63;;;21.00;98.50;;;;;;5012083;28;20977;-61
2023/08/08 08:29:43;;;;;;;3.47;1.80;;;21.00;98.60;;;;;;5012243;28;20474;-59
2023/08/08 08:32:10;;;;;;;2.03;1.70;;;21.00;98.50;;;;;;5011803;28;20565;-58
2023/08/08 08:34:38;;;;;;;3.07;2.03;;;21.00;98.40;;;;;;5012238;28;20481;-61
2023/08/08 08:37:05;;;;;;;1.83;1.73;;;21.00;98.40;;;;;;5012260;28;20442;-61
2023/08/08 08:39:32;;;;;;;3.33;1.90;;;21.00;98.60;;;;;;4996357;28;20525;-61
2023/08/08 08:42:04;;;;;;;1.47;1.37;;;21.00;98.50;;;;;;5011732;28;20512;-61
2023/08/08 08:44:32;;;;;;;1.80;1.70;;;21.00;98.50;;;;;;4996112;28;20556;-61
2023/08/08 08:47:01;;;;;;;1.83;1.73;;;21.00;98.50;;;;;;5012135;28;20442;-58
2023/08/08 08:49:31;;;;;;;1.83;1.60;;;21.00;98.60;;;;;;5011715;28;20465;-61
2023/08/08 08:52:01;;;;;;;2.10;1.77;;;21.00;98.60;;;;;;5011614;28;20505;-61
2023/08/08 08:54:29;;;;;;;1.90;1.80;;;21.00;98.50;;;;;;5012053;28;20438;-57
2023/08/08 08:56:57;;;;;;;1.93;1.50;;;21.00;98.60;;;;;;5011950;28;20438;-62
2023/08/08 08:59:24;;;;;;;1.83;1.63;;;21.00;98.60;;;;;;5011587;28;20519;-61
2023/08/08 09:01:52;;;;;;;2.57;1.63;;;21.00;98.60;;;;;;5010493;28;20461;-62
2023/08/08 09:04:21;;;;;;;1.23;1.23;;;21.00;98.50;;;;;;5011638;28;20852;-61
2023/08/08 09:06:49;;;;;;;2.30;1.70;;;21.00;98.60;;;;;;5011619;28;20446;-61
2023/08/08 09:09:21;;;;;;;3.20;2.00;;;21.00;98.60;;;;;;5011512;28;20456;-60
2023/08/08 09:11:50;;;;;;;1.90;1.80;;;21.00;98.60;;;;;;5011267;28;20531;-60
2023/08/08 09:14:22;;;;;;;2.10;2.00;;;21.00;98.70;;;;;;5011570;28;20449;-60
2023/08/08 09:16:51;;;;;;;1.80;1.70;;;21.00;98.80;;;;;;5011577;28;20469;-61
2023/08/08 09:19:18;;;;;;;2.77;2.57;;;21.00;98.60;;;;;;5011523;28;20446;-59
2023/08/08 09:21:45;;;;;;;3.33;1.60;;;21.00;98.70;;;;;;5011227;28;20464;-61
2023/08/08 09:24:12;;;;;;;2.10;1.93;;;21.00;98.70;;;;;;5011488;28;20881;-61
2023/08/08 09:26:42;;;;;;;2.93;1.67;;;21.00;98.80;;;;;;5011404;28;20477;-60
2023/08/08 09:29:09;;;;;;;1.70;1.60;;;21.00;98.70;;;;;;5011174;28;20442;-61
2023/08/08 09:31:37;;;;;;;2.10;1.90;;;21.00;98.60;;;;;;5011068;28;20564;-61
2023/08/08 09:34:05;;;;;;;1.87;1.77;;;21.00;98.60;;;;;;5011459;28;20880;-62
2023/08/08 09:36:33;;;;;;;4.33;1.97;;;21.00;98.60;;;;;;4995273;28;20474;-60
2023/08/08 09:39:00;;;;;;;1.67;1.57;;;21.00;98.60;;;;;;5011312;28;20454;-62
2023/08/08 09:41:28;;;;;;;1.90;1.80;;;21.00;98.70;;;;;;5011052;28;20485;-61
2023/08/08 09:43:56;;;;;;;2.40;1.77;;;21.00;98.60;;;;;;5011289;28;20469;-61
2023/08/08 09:46:23;;;;;;;1.40;1.40;;;21.00;98.70;;;;;;5011217;28;20968;-58
2023/08/08 09:48:51;;;;;;;2.67;2.47;;;21.00;98.70;;;;;;5011270;28;20481;-61
2023/08/08 09:51:18;;;;;;;2.60;1.47;;;21.00;98.90;;;;;;5010885;28;20467;-60
2023/08/08 09:53:47;;;;;;;1.73;1.63;;;21.00;98.70;;;;;;5011130;28;20568;-61
2023/08/08 09:56:15;;;;;;;2.93;1.87;;;21.00;98.70;;;;;;5011113;28;20500;-59
2023/08/08 09:58:43;;;;;;;1.60;1.50;;;21.10;98.80;;;;;;5010999;28;20453;-62
2023/08/08 10:01:13;;;;;;;1.97;1.87;;;21.10;98.90;;;;;;5010638;28;20567;-62
2023/08/08 10:03:42;;;;;;;2.57;2.43;;;21.10;98.90;;;;;;5011108;28;20451;-62
2023/08/08 10:06:10;;;;;;;4.67;2.13;;;21.10;98.90;;;;;;5011111;28;20450;-61
2023/08/08 10:08:37;;;;;;;2.53;2.43;;;21.10;98.90;;;;;;5011024;28;20438;-60
2023/08/08 10:11:06;;;;;;;4.20;2.20;;;21.10;99.00;;;;;;5011056;28;20497;-59
2023/08/08 10:13:33;;;;;;;3.10;2.23;;;21.10;98.90;;;;;;5013216;28;20505;-61
2023/08/08 10:16:08;;;;;;;1.90;1.80;;;21.00;98.90;;;;;;5014704;28;20449;-61
2023/08/08 10:18:36;;;;;;;1.60;1.60;;;21.00;99.00;;;;;;4998681;28;20465;-61
2023/08/08 10:21:05;;;;;;;1.87;1.70;;;21.10;99.20;;;;;;5014361;28;20504;-61
2023/08/08 10:23:37;;;;;;;2.10;2.00;;;21.10;99.20;;;;;;5014416;28;20882;-61
2023/08/08 10:26:04;;;;;;;1.60;1.60;;;21.10;99.10;;;;;;5014610;28;20446;-61
2023/08/08 10:28:34;;;;;;;1.70;1.60;;;21.00;99.10;;;;;;5014339;28;20473;-61
2023/08/08 10:31:04;;;;;;;1.40;1.40;;;21.10;99.10;;;;;;5014473;28;20466;-60
2023/08/08 10:33:43;;;;;;;1.70;1.60;;;21.10;99.10;;;;;;5014221;28;20640;-61
2023/08/08 10:36:13;;;;;;;1.43;1.33;;;21.10;99.10;;;;;;5014253;28;20453;-60
2023/08/08 10:38:44;;;;;;;2.00;1.90;;;21.10;99.20;;;;;;5014294;28;20508;-62
2023/08/08 10:41:12;;;;;;;4.03;1.80;;;21.00;99.10;;;;;;5014133;28;20469;-61
2023/08/08 10:43:40;;;;;;;2.03;1.83;;;21.10;99.10;;;;;;5014238;28;20443;-60
2023/08/08 10:46:08;;;;;;;3.20;2.00;;;21.00;99.20;;;;;;5014251;28;20454;-61
2023/08/08 10:48:34;;;;;;;3.60;1.80;;;21.10;99.60;;;;;;5014053;28;20474;-59
2023/08/08 10:51:03;;;;;;;2.30;1.60;;;21.10;99.30;;;;;;5013839;28;20500;-59
2023/08/08 10:53:30;;;;;;;1.90;1.80;;;21.10;99.30;;;;;;5013983;28;20513;-61
2023/08/08 10:56:02;;;;;;;1.90;1.60;;;21.10;99.40;;;;;;5013922;28;20493;-60
2023/08/08 10:58:39;;;;;;;2.00;1.73;;;21.10;99.40;;;;;;5013938;28;20481;-58
2023/08/08 11:01:08;;;;;;;2.10;1.70;;;21.10;99.30;;;;;;5056813;22;20478;-65
2023/08/08 11:03:37;;;;;;;1.60;1.60;;;21.10;99.40;;;;;;5053311;28;20467;-65
2023/08/08 11:06:07;;;;;;;3.10;2.80;;;21.10;99.20;;;;;;5053690;28;20472;-64
2023/08/08 11:08:35;;;;;;;2.20;2.10;;;21.10;99.40;;;;;;5053237;28;20475;-64
2023/08/08 11:11:03;;;;;;;2.13;1.57;;;21.10;99.40;;;;;;5050754;28;20476;-64
2023/08/08 11:13:30;;;;;;;2.20;2.10;;;21.10;99.30;;;;;;5033224;28;20508;-64
2023/08/08 11:15:57;;;;;;;1.90;1.80;;;21.10;99.40;;;;;;5033367;28;20476;-64
2023/08/08 11:18:25;;;;;;;1.77;1.67;;;21.10;99.50;;;;;;5033271;28;20899;-64
2023/08/08 11:20:52;;;;;;;2.07;1.93;;;21.10;99.40;;;;;;5032986;28;20481;-64
2023/08/08 11:23:20;;;;;;;1.37;1.30;;;21.10;99.40;;;;;;5032948;28;20473;-64
2023/08/08 11:25:48;;;;;;;3.63;2.20;;;21.10;99.40;;;;;;5032546;28;20447;-64
2023/08/08 11:28:15;;;;;;;2.93;2.60;;;21.10;99.50;;;;;;5032932;28;20524;-64
2023/08/08 11:30:44;;;;;;;2.13;1.93;;;21.10;99.80;;;;;;5032903;28;20948;-64
2023/08/08 11:33:13;;;;;;;1.73;1.63;;;21.10;99.50;;;;;;5032881;28;20481;-64
2023/08/08 11:35:46;;;;;;;2.60;2.40;;;21.10;99.50;;;;;;5017558;28;20477;-65
2023/08/08 11:38:14;;;;;;;2.87;1.67;;;21.10;99.60;;;;;;5032877;28;20499;-64
2023/08/08 11:40:44;;;;;;;2.00;1.90;;;21.10;99.50;;;;;;5032595;28;20479;-64
2023/08/08 11:43:13;;;;;;;1.83;1.73;;;21.10;99.50;;;;;;5032961;28;20449;-64
2023/08/08 11:45:40;;;;;;;1.83;1.67;;;21.10;99.50;;;;;;5017342;28;20927;-64
2023/08/08 11:48:10;;;;;;;2.10;2.00;;;21.10;99.50;;;;;;5032861;28;20474;-64
2023/08/08 11:50:38;;;;;;;2.00;1.90;;;21.10;99.40;;;;;;5032253;28;21022;-65
2023/08/08 11:53:06;;;;;;;2.00;1.90;;;21.10;99.50;;;;;;5032701;28;20891;-63
2023/08/08 11:55:33;;;;;;;2.13;2.03;;;21.10;99.60;;;;;;5032445;28;20437;-64
2023/08/08 11:58:01;;;;;;;1.70;1.60;;;21.10;99.50;;;;;;5032796;28;20543;-64
2023/08/08 12:00:30;;;;;;;2.43;2.23;;;21.10;99.60;;;;;;5032164;28;20477;-64
2023/08/08 12:02:58;;;;;;;1.80;1.70;;;21.10;99.50;;;;;;5032319;28;20457;-65
2023/08/08 12:05:25;;;;;;;2.43;2.17;;;21.10;99.40;;;;;;5032460;28;20534;-65
2023/08/08 12:07:53;;;;;;;1.83;1.83;;;21.10;99.50;;;;;;5032318;28;20446;-64
2023/08/08 12:10:22;;;;;;;1.73;1.67;;;21.10;99.60;;;;;;5031933;28;20534;-64
2023/08/08 12:12:54;;;;;;;1.97;1.80;;;21.10;99.60;;;;;;5032076;28;21058;-64
2023/08/08 12:15:23;;;;;;;2.00;1.80;;;21.10;99.50;;;;;;5032103;28;20583;-65
2023/08/08 12:17:50;;;;;;;1.97;1.43;;;21.10;99.50;;;;;;5032229;28;20469;-64
2023/08/08 12:20:17;;;;;;;1.90;1.80;;;21.10;99.40;;;;;;5031854;28;20478;-64
2023/08/08 12:22:45;;;;;;;2.33;2.13;;;21.10;99.30;;;;;;5032000;28;20489;-64
2023/08/08 12:25:12;;;;;;;1.80;1.70;;;21.10;99.50;;;;;;5032085;28;20437;-64
2023/08/08 12:27:39;;;;;;;3.10;2.10;;;21.10;99.60;;;;;;5015802;28;20456;-65
2023/08/08 12:30:08;;;;;;;1.77;1.67;;;21.10;99.50;;;;;;5031876;28;20801;-66
2023/08/08 12:32:36;;;;;;;1.70;1.60;;;21.10;99.50;;;;;;5031646;28;20539;-64
2023/08/08 12:35:03;;;;;;;3.33;1.90;;;21.10;99.60;;;;;;5031671;28;20473;-64
2023/08/08 12:37:30;;;;;;;2.37;2.17;;;21.10;99.60;;;;;;5031931;28;20484;-64
2023/08/08 12:39:57;;;;;;;1.90;1.80;;;21.10;99.60;;;;;;5031578;28;20945;-63
2023/08/08 12:42:24;;;;;;;2.63;1.60;;;21.10;99.60;;;;;;5031366;28;20543;-63
2023/08/08 12:44:51;;;;;;;2.10;1.90;;;21.10;99.40;;;;;;5031818;28;20878;-65
2023/08/08 12:47:19;;;;;;;1.60;1.60;;;21.10;99.30;;;;;;5031710;28;20441;-64
2023/08/08 12:49:47;;;;;;;1.70;1.60;;;21.10;99.20;;;;;;5031672;28;20447;-64